createdAt,value
2022-12-08T00:01:17.467Z,8.50
2022-12-08T00:03:44.711Z,6.38
2022-12-08T00:06:58.137Z,6.13
2022-12-08T00:09:38.290Z,2.72
2022-12-08T00:12:11.842Z,8.27
2022-12-08T00:14:43.652Z,7.18
2022-12-08T00:17:12.081Z,7.82
2022-12-08T00:19:40.117Z,8.75
2022-12-08T00:22:08.306Z,8.75
2022-12-08T00:24:40.199Z,10.45
2022-12-08T00:27:08.662Z,6.63
2022-12-08T00:29:35.624Z,6.05
2022-12-08T00:32:02.679Z,7.60
2022-12-08T00:34:30.359Z,6.93
2022-12-08T00:36:57.252Z,6.15
2022-12-08T00:39:24.007Z,7.70
2022-12-08T00:42:09.619Z,6.70
2022-12-08T00:44:36.642Z,3.88
2022-12-08T00:47:03.456Z,9.37
2022-12-08T00:49:30.246Z,8.57
2022-12-08T00:51:57.290Z,4.07
2022-12-08T00:54:24.437Z,7.90
2022-12-08T00:56:51.587Z,6.15
2022-12-08T00:59:18.512Z,5.45
2022-12-08T01:01:46.182Z,5.43
2022-12-08T01:04:15.706Z,5.55
2022-12-08T01:06:43.566Z,6.57
2022-12-08T01:09:12.549Z,3.70
2022-12-08T01:11:39.521Z,6.22
2022-12-08T01:14:06.293Z,7.30
2022-12-08T01:16:36.870Z,5.53
2022-12-08T01:19:04.386Z,4.90
2022-12-08T01:21:31.294Z,8.45
2022-12-08T01:24:00.571Z,2.80
2022-12-08T01:26:27.542Z,9.02
2022-12-08T01:28:54.636Z,8.40
2022-12-08T01:31:22.260Z,5.80
2022-12-08T01:33:52.341Z,6.00
2022-12-08T01:36:25.168Z,9.73
2022-12-08T01:38:53.019Z,6.78
2022-12-08T01:43:56.768Z,5.63
2022-12-08T01:46:24.704Z,9.48
2022-12-08T01:49:00.905Z,7.80
2022-12-08T01:51:29.417Z,5.03
2022-12-08T01:53:56.622Z,5.55
2022-12-08T01:56:35.432Z,10.43
2022-12-08T01:59:03.287Z,5.50
2022-12-08T02:04:00.233Z,2.40
2022-12-08T02:06:31.480Z,12.10
2022-12-08T02:09:00.505Z,12.07
2022-12-08T02:11:27.224Z,12.10
2022-12-08T02:13:56.171Z,11.20
2022-12-08T02:16:42.909Z,6.20
2022-12-08T02:19:32.559Z,12.30
2022-12-08T02:22:08.873Z,2.92
2022-12-08T02:24:56.074Z,15.00
2022-12-08T02:28:05.047Z,12.77
2022-12-08T02:30:56.796Z,11.90
2022-12-08T02:33:34.080Z,12.15
2022-12-08T02:36:20.067Z,11.90
2022-12-08T02:38:59.442Z,5.05
2022-12-08T02:41:41.856Z,10.77
2022-12-08T02:44:31.625Z,13.68
2022-12-08T02:47:07.097Z,5.60
2022-12-08T02:49:35.640Z,4.70
2022-12-08T02:52:07.842Z,2.53
2022-12-08T02:54:36.601Z,9.80
2022-12-08T02:57:27.945Z,6.85
2022-12-08T03:00:07.358Z,10.10
2022-12-08T03:02:46.542Z,7.68
2022-12-08T03:05:31.512Z,5.22
2022-12-08T03:08:32.311Z,7.95
2022-12-08T03:11:10.870Z,7.90
2022-12-08T03:13:45.192Z,9.60
2022-12-08T03:16:17.564Z,12.23
2022-12-08T03:18:51.056Z,10.00
2022-12-08T03:21:19.354Z,8.15
2022-12-08T03:23:50.655Z,9.25
2022-12-08T03:26:36.070Z,10.73
2022-12-08T03:29:03.855Z,6.28
2022-12-08T03:34:02.416Z,10.43
2022-12-08T03:36:29.184Z,7.30
2022-12-08T03:38:55.978Z,8.97
2022-12-08T03:41:23.524Z,8.80
2022-12-08T03:43:56.109Z,6.85
2022-12-08T03:48:51.511Z,9.77
2022-12-08T03:51:19.210Z,6.43
2022-12-08T03:53:46.630Z,6.55
2022-12-08T03:56:25.148Z,9.73
2022-12-08T03:58:53.025Z,3.72
2022-12-08T04:01:20.157Z,9.60
2022-12-08T04:03:47.505Z,12.65
2022-12-08T04:06:14.810Z,10.40
2022-12-08T04:08:41.935Z,11.10
2022-12-08T04:11:08.854Z,12.18
2022-12-08T04:13:37.546Z,9.23
2022-12-08T04:16:05.378Z,8.50
2022-12-08T04:18:33.752Z,10.70
2022-12-08T04:21:00.557Z,11.00
2022-12-08T04:23:27.366Z,7.47
2022-12-08T04:25:54.559Z,13.37
2022-12-08T04:28:21.737Z,10.43
2022-12-08T04:30:49.818Z,13.52
2022-12-08T04:33:17.542Z,7.22
2022-12-08T04:38:11.165Z,5.93
2022-12-08T04:40:38.663Z,8.88
2022-12-08T04:43:05.628Z,10.23
2022-12-08T04:45:33.073Z,11.10
2022-12-08T04:48:00.812Z,11.45
2022-12-08T04:55:21.928Z,15.53
2022-12-08T04:57:48.761Z,3.87
2022-12-08T05:00:16.518Z,8.97
2022-12-08T05:05:10.702Z,13.15
2022-12-08T05:07:37.889Z,14.38
2022-12-08T05:10:05.523Z,8.57
2022-12-08T05:12:33.194Z,11.25
2022-12-08T05:15:00.217Z,16.38
2022-12-08T05:17:27.050Z,6.72
2022-12-08T05:19:53.969Z,12.33
2022-12-08T05:22:20.884Z,10.88
2022-12-08T05:24:48.083Z,5.73
2022-12-08T05:27:15.356Z,11.27
2022-12-08T05:29:42.460Z,4.53
2022-12-08T05:32:09.441Z,9.52
2022-12-08T05:34:40.330Z,6.22
2022-12-08T05:37:36.601Z,10.38
2022-12-08T05:40:04.534Z,9.90
2022-12-08T05:45:07.445Z,6.72
2022-12-08T05:47:36.365Z,11.23
2022-12-08T05:50:03.967Z,8.02
2022-12-08T05:54:58.948Z,6.75
2022-12-08T05:57:26.213Z,9.80
2022-12-08T05:59:53.531Z,11.95
2022-12-08T06:02:20.472Z,9.00
2022-12-08T06:04:47.553Z,5.68
2022-12-08T06:07:16.185Z,7.93
2022-12-08T06:09:43.876Z,10.30
2022-12-08T06:12:11.866Z,7.60
2022-12-08T06:14:39.826Z,11.55
2022-12-08T06:17:06.914Z,6.75
2022-12-08T06:19:34.097Z,8.98
2022-12-08T06:22:01.518Z,5.95
2022-12-08T06:24:28.469Z,4.35
2022-12-08T06:26:55.307Z,7.60
2022-12-08T06:29:22.107Z,2.13
2022-12-08T06:31:48.959Z,10.67
2022-12-08T06:34:15.726Z,10.27
2022-12-08T06:36:42.536Z,10.97
2022-12-08T06:39:10.368Z,9.95
2022-12-08T06:41:57.248Z,3.95
2022-12-08T06:44:24.428Z,3.15
2022-12-08T06:46:51.366Z,8.85
2022-12-08T06:49:18.243Z,2.80
2022-12-08T06:51:45.153Z,2.37
2022-12-08T06:54:12.206Z,6.57
2022-12-08T06:56:38.886Z,7.95
2022-12-08T06:59:05.730Z,5.23
2022-12-08T07:01:32.573Z,5.82
2022-12-08T07:03:59.489Z,7.85
2022-12-08T07:06:26.570Z,6.47
2022-12-08T07:08:53.526Z,2.90
2022-12-08T07:11:22.291Z,1.67
2022-12-08T07:13:49.798Z,9.80
2022-12-08T07:16:16.862Z,7.80
2022-12-08T07:18:44.282Z,9.02
2022-12-08T07:21:14.783Z,9.65
2022-12-08T07:23:42.820Z,8.70
2022-12-08T07:28:39.663Z,12.10
2022-12-08T07:31:08.604Z,7.53
2022-12-08T07:33:36.143Z,9.13
2022-12-08T07:38:32.066Z,1.88
2022-12-08T07:40:59.197Z,8.30
2022-12-08T07:43:26.314Z,10.25
2022-12-08T07:45:53.777Z,10.07
2022-12-08T07:48:20.711Z,11.52
2022-12-08T07:50:48.218Z,8.55
2022-12-08T07:53:15.136Z,10.27
2022-12-08T07:55:43.601Z,3.03
2022-12-08T07:58:10.937Z,8.43
2022-12-08T08:00:38.101Z,5.35
2022-12-08T08:03:05.132Z,2.60
2022-12-08T08:05:32.024Z,8.25
2022-12-08T08:10:26.668Z,6.57
2022-12-08T08:12:53.770Z,11.02
2022-12-08T08:15:21.289Z,7.43
2022-12-08T08:17:52.365Z,5.68
2022-12-08T08:20:20.520Z,6.25
2022-12-08T08:22:49.598Z,6.07
2022-12-08T08:25:42.341Z,6.53
2022-12-08T08:28:10.049Z,6.70
2022-12-08T08:30:36.959Z,11.65
2022-12-08T08:33:04.143Z,16.23
2022-12-08T08:35:31.170Z,9.63
2022-12-08T08:37:58.367Z,3.03
2022-12-08T08:40:25.121Z,4.80
2022-12-08T08:45:19.736Z,2.85
2022-12-08T08:47:46.889Z,3.50
2022-12-08T08:50:13.948Z,2.92
2022-12-08T08:52:40.828Z,2.17
2022-12-08T08:55:08.045Z,6.70
2022-12-08T08:57:34.952Z,7.63
2022-12-08T09:00:02.167Z,2.70
2022-12-08T09:02:30.132Z,3.42
2022-12-08T09:04:57.233Z,6.20
2022-12-08T09:07:24.178Z,7.95
2022-12-08T09:09:51.066Z,1.00
2022-12-08T09:12:18.145Z,5.07
2022-12-08T09:14:46.010Z,4.50
2022-12-08T09:17:13.229Z,6.22
2022-12-08T09:19:40.283Z,6.18
2022-12-08T09:22:07.413Z,5.97
2022-12-08T09:24:34.357Z,1.45
2022-12-08T09:27:01.405Z,2.85
2022-12-08T09:29:34.032Z,3.00
2022-12-08T09:32:03.243Z,2.67
2022-12-08T09:34:31.384Z,4.38
2022-12-08T09:36:58.437Z,3.08
2022-12-08T09:39:25.722Z,3.25
2022-12-08T09:42:04.801Z,2.15
2022-12-08T09:44:46.508Z,4.50
2022-12-08T09:47:35.823Z,2.90
2022-12-08T09:50:25.131Z,1.45
2022-12-08T09:53:14.720Z,3.30
2022-12-08T09:55:46.721Z,1.70
2022-12-08T09:58:48.877Z,2.30
2022-12-08T10:01:16.440Z,0.95
2022-12-08T10:03:43.432Z,1.77
2022-12-08T10:06:37.106Z,1.48
2022-12-08T10:09:23.963Z,1.95
2022-12-08T10:12:09.152Z,2.78
2022-12-08T10:14:38.772Z,2.05
2022-12-08T10:17:16.114Z,2.50
2022-12-08T10:19:44.213Z,2.13
2022-12-08T10:22:26.686Z,1.70
2022-12-08T10:25:01.173Z,2.70
2022-12-08T10:27:28.323Z,1.80
2022-12-08T10:29:55.204Z,1.85
2022-12-08T10:35:12.171Z,1.25
2022-12-08T10:37:39.414Z,2.95
2022-12-08T10:40:13.364Z,1.75
2022-12-08T10:42:43.509Z,1.15
2022-12-08T10:45:15.416Z,2.92
2022-12-08T10:47:47.849Z,3.92
2022-12-08T10:50:22.561Z,2.63
2022-12-08T10:53:01.729Z,1.15
2022-12-08T10:55:39.128Z,1.90
2022-12-08T10:58:06.398Z,2.67
2022-12-08T11:00:34.406Z,1.67
2022-12-08T11:03:05.678Z,2.28
2022-12-08T11:05:35.117Z,3.35
2022-12-08T11:08:04.940Z,0.50
2022-12-08T11:10:44.837Z,2.63
2022-12-08T11:13:26.882Z,1.77
2022-12-08T11:15:57.466Z,2.42
2022-12-08T11:18:46.931Z,2.65
2022-12-08T11:21:19.027Z,2.15
2022-12-08T11:23:50.776Z,3.00
2022-12-08T11:26:31.848Z,2.13
2022-12-08T11:28:59.103Z,1.33
2022-12-08T11:31:32.172Z,2.38
2022-12-08T11:33:59.327Z,1.42
2022-12-08T11:36:30.077Z,2.85
2022-12-08T11:39:00.168Z,1.88
2022-12-08T11:41:47.714Z,2.95
2022-12-08T11:44:44.283Z,3.08
2022-12-08T11:47:28.460Z,3.20
2022-12-08T11:50:18.095Z,3.65
2022-12-08T11:52:50.854Z,3.75
2022-12-08T11:55:39.118Z,3.35
2022-12-08T11:58:34.634Z,3.10
2022-12-08T12:01:01.922Z,3.63
2022-12-08T12:03:43.322Z,3.22
2022-12-08T12:06:56.554Z,2.67
2022-12-08T12:10:00.440Z,3.58
2022-12-08T12:12:55.680Z,5.03
2022-12-08T12:15:56.238Z,3.80
2022-12-08T12:18:53.693Z,3.67
2022-12-08T12:21:28.225Z,3.47
2022-12-08T12:24:05.252Z,4.22
2022-12-08T12:26:37.570Z,3.33
2022-12-08T12:29:18.566Z,3.75
2022-12-08T12:31:53.392Z,4.63
2022-12-08T12:34:30.477Z,4.22
2022-12-08T12:37:08.890Z,3.03
2022-12-08T12:39:53.887Z,1.98
2022-12-08T12:42:44.793Z,4.07
2022-12-08T12:45:18.080Z,3.33
2022-12-08T12:47:56.569Z,6.47
2022-12-08T12:50:33.705Z,6.72
2022-12-08T12:53:19.284Z,4.95
2022-12-08T12:55:57.071Z,5.45
2022-12-08T12:58:35.678Z,3.42
2022-12-08T13:01:09.121Z,6.97
2022-12-08T13:03:50.104Z,3.22
2022-12-08T13:06:44.777Z,7.40
2022-12-08T13:09:28.923Z,7.53
2022-12-08T13:12:00.018Z,9.60
2022-12-08T13:14:44.166Z,7.22
2022-12-08T13:17:16.231Z,8.13
2022-12-08T13:19:51.551Z,8.75
2022-12-08T13:23:00.452Z,5.97
2022-12-08T13:25:40.400Z,4.28
2022-12-08T13:28:16.537Z,7.47
2022-12-08T13:30:52.233Z,8.18
2022-12-08T13:33:27.385Z,7.07
2022-12-08T13:36:19.425Z,5.43
2022-12-08T13:38:49.387Z,6.47
2022-12-08T13:41:24.369Z,7.22
2022-12-08T13:47:25.180Z,4.47
2022-12-08T13:58:31.577Z,5.88
2022-12-08T14:01:14.785Z,6.63
2022-12-08T14:04:37.174Z,6.63
2022-12-08T14:06:48.947Z,3.10
2022-12-08T14:09:36.855Z,6.30
2022-12-08T14:12:40.852Z,6.18
2022-12-08T14:15:11.941Z,6.82
2022-12-08T14:17:39.995Z,7.40
2022-12-08T14:20:13.136Z,7.03
2022-12-08T14:22:41.706Z,7.30
2022-12-08T14:25:19.135Z,7.57
2022-12-08T14:27:49.587Z,8.05
2022-12-08T14:30:24.591Z,6.10
2022-12-08T14:32:56.177Z,7.75
2022-12-08T14:35:30.316Z,5.60
2022-12-08T14:38:06.697Z,6.35
2022-12-08T14:40:42.173Z,6.03
2022-12-08T14:43:09.196Z,5.55
2022-12-08T14:45:45.286Z,6.50
2022-12-08T14:48:25.865Z,6.15
2022-12-08T14:51:11.835Z,2.90
2022-12-08T14:54:09.504Z,5.70
2022-12-08T14:56:40.620Z,7.72
2022-12-08T14:59:13.830Z,5.03
2022-12-08T15:01:42.936Z,4.07
2022-12-08T15:04:20.162Z,3.35
2022-12-08T15:06:54.311Z,4.80
2022-12-08T15:09:32.451Z,4.95
2022-12-08T15:12:12.645Z,4.90
2022-12-08T15:15:15.244Z,4.72
2022-12-08T15:17:51.692Z,6.72
2022-12-08T15:20:33.346Z,4.45
2022-12-08T15:23:02.725Z,4.95
2022-12-08T15:25:29.829Z,5.35
2022-12-08T15:27:58.100Z,7.65
2022-12-08T15:30:28.526Z,5.03
2022-12-08T15:32:56.421Z,5.63
2022-12-08T15:35:23.540Z,5.68
2022-12-08T15:37:50.589Z,4.32
2022-12-08T15:40:20.634Z,6.05
2022-12-08T15:42:48.764Z,3.80
2022-12-08T15:45:16.926Z,4.22
2022-12-08T15:47:45.241Z,5.28
2022-12-08T15:50:22.816Z,6.88
2022-12-08T15:55:21.892Z,7.43
2022-12-08T15:58:51.143Z,6.97
2022-12-08T16:00:52.507Z,5.78
2022-12-08T16:04:13.737Z,6.20
2022-12-08T16:09:13.075Z,5.63
2022-12-08T16:12:09.073Z,5.68
2022-12-08T16:17:25.160Z,6.10
2022-12-08T16:19:52.056Z,5.35
2022-12-08T16:22:54.116Z,5.17
2022-12-08T16:25:18.846Z,6.30
2022-12-08T16:30:36.556Z,5.30
2022-12-08T16:33:03.896Z,6.18
2022-12-08T16:35:31.274Z,7.03
2022-12-08T16:37:58.680Z,6.60
2022-12-08T16:40:25.858Z,6.97
2022-12-08T16:42:52.835Z,6.10
2022-12-08T16:45:22.740Z,7.25
2022-12-08T16:47:52.437Z,7.07
2022-12-08T16:50:25.508Z,7.75
2022-12-08T16:53:06.862Z,8.20
2022-12-08T16:55:34.568Z,8.32
2022-12-08T16:58:02.650Z,7.32
2022-12-08T17:00:36.722Z,7.07
2022-12-08T17:03:05.416Z,5.57
2022-12-08T17:05:32.362Z,7.25
2022-12-08T17:07:59.524Z,7.95
2022-12-08T17:10:34.373Z,6.80
2022-12-08T17:13:02.339Z,6.63
2022-12-08T17:15:29.333Z,5.32
2022-12-08T17:17:56.295Z,7.60
2022-12-08T17:20:28.344Z,8.82
2022-12-08T17:22:58.942Z,4.47
2022-12-08T17:25:26.901Z,6.50
2022-12-08T17:27:54.217Z,5.65
2022-12-08T17:30:21.279Z,6.43
2022-12-08T17:32:48.191Z,5.78
2022-12-08T17:35:15.310Z,5.65
2022-12-08T17:37:43.451Z,4.35
2022-12-08T17:40:11.093Z,3.40
2022-12-08T17:42:38.801Z,3.88
2022-12-08T17:45:07.395Z,4.15
2022-12-08T17:47:34.618Z,3.63
2022-12-08T17:50:01.746Z,4.90
2022-12-08T17:52:28.586Z,3.63
2022-12-08T17:54:55.558Z,3.72
2022-12-08T17:57:22.766Z,4.45
2022-12-08T17:59:49.582Z,4.40
2022-12-08T18:02:16.429Z,4.23
2022-12-08T18:04:43.179Z,5.30
2022-12-08T18:07:10.188Z,5.07
2022-12-08T18:09:37.205Z,5.40
2022-12-08T18:12:04.276Z,4.93
2022-12-08T18:14:31.246Z,5.13
2022-12-08T18:17:00.949Z,5.53
2022-12-08T18:19:27.945Z,6.57
2022-12-08T18:21:56.206Z,5.43
2022-12-08T18:24:24.442Z,5.75
2022-12-08T18:26:52.664Z,5.75
2022-12-08T18:29:21.022Z,6.20
2022-12-08T18:31:48.005Z,7.57
2022-12-08T18:34:15.104Z,7.85
2022-12-08T18:36:45.067Z,6.45
2022-12-08T18:39:22.463Z,6.65
2022-12-08T18:41:49.811Z,5.72
2022-12-08T18:44:17.984Z,6.60
2022-12-08T18:46:46.668Z,8.77
2022-12-08T18:49:17.150Z,8.07
2022-12-08T18:51:44.494Z,7.88
2022-12-08T18:54:12.238Z,8.07
2022-12-08T18:59:09.062Z,8.35
2022-12-08T19:01:38.683Z,7.38
2022-12-08T19:06:56.596Z,8.95
2022-12-08T19:09:25.346Z,7.43
2022-12-08T19:11:52.599Z,6.18
2022-12-08T19:14:25.779Z,7.10
2022-12-08T19:16:54.851Z,7.78
2022-12-08T19:19:21.757Z,11.35
2022-12-08T19:21:48.777Z,11.13
2022-12-08T19:24:18.292Z,8.55
2022-12-08T19:26:46.214Z,6.55
2022-12-08T19:31:41.209Z,8.00
2022-12-08T19:34:09.931Z,3.15
2022-12-08T19:36:42.601Z,7.97
2022-12-08T19:39:46.540Z,9.15
2022-12-08T19:42:39.256Z,9.10
2022-12-08T19:45:13.594Z,8.82
2022-12-08T19:47:40.974Z,7.90
2022-12-08T19:50:45.801Z,8.20
2022-12-08T19:53:15.581Z,9.30
2022-12-08T19:55:43.900Z,8.15
2022-12-08T19:58:11.804Z,7.43
2022-12-08T20:00:43.508Z,7.13
2022-12-08T20:03:14.557Z,9.10
2022-12-08T20:05:48.298Z,8.93
2022-12-08T20:08:22.920Z,9.30
2022-12-08T20:11:00.167Z,9.30
2022-12-08T20:13:42.964Z,10.90
2022-12-08T20:16:26.968Z,8.52
2022-12-08T20:18:57.262Z,8.50
2022-12-08T20:21:24.639Z,8.30
2022-12-08T20:23:52.166Z,7.25
2022-12-08T20:26:21.787Z,8.50
2022-12-08T20:28:48.814Z,7.10
2022-12-08T20:31:25.051Z,8.02
2022-12-08T20:33:52.729Z,8.13
2022-12-08T20:36:29.755Z,8.40
2022-12-08T20:38:57.563Z,9.45
2022-12-08T20:41:27.355Z,9.70
2022-12-08T20:44:09.766Z,11.18
2022-12-08T20:46:49.396Z,11.20
2022-12-08T20:49:52.374Z,8.88
2022-12-08T20:52:25.205Z,10.18
2022-12-08T20:55:14.611Z,14.77
2022-12-08T20:57:47.109Z,15.40
2022-12-08T21:00:22.124Z,12.25
2022-12-08T21:03:07.873Z,10.02
2022-12-08T21:05:39.185Z,8.65
2022-12-08T21:08:22.204Z,8.63
2022-12-08T21:11:02.931Z,10.55
2022-12-08T21:13:34.588Z,8.88
2022-12-08T21:16:12.934Z,10.82
2022-12-08T21:18:51.429Z,12.68
2022-12-08T21:21:27.736Z,12.18
2022-12-08T21:23:56.174Z,10.10
2022-12-08T21:26:33.462Z,10.25
2022-12-08T21:29:05.114Z,11.93
2022-12-08T21:34:12.199Z,7.38
2022-12-08T21:36:44.631Z,7.40
2022-12-08T21:39:23.262Z,10.43
2022-12-08T21:42:32.328Z,8.68
2022-12-08T21:45:08.670Z,12.18
2022-12-08T21:47:39.854Z,9.15
2022-12-08T21:50:08.945Z,11.65
2022-12-08T21:52:40.574Z,9.38
2022-12-08T21:55:16.388Z,9.68
2022-12-08T21:58:17.939Z,8.20
2022-12-08T22:00:48.533Z,11.30
2022-12-08T22:03:18.906Z,9.48
2022-12-08T22:08:17.339Z,9.18
2022-12-08T22:10:58.330Z,9.25
2022-12-08T22:14:03.017Z,11.40
2022-12-08T22:16:53.460Z,9.00
2022-12-08T22:19:23.178Z,9.98
2022-12-08T22:21:54.323Z,12.15
2022-12-08T22:24:38.331Z,12.02
2022-12-08T22:27:22.171Z,14.75
2022-12-08T22:29:53.325Z,12.38
2022-12-08T22:32:21.180Z,10.13
2022-12-08T22:34:49.443Z,11.07
2022-12-08T22:37:30.582Z,9.32
2022-12-08T22:40:12.063Z,9.27
2022-12-08T22:42:47.128Z,8.13
2022-12-08T22:45:22.660Z,9.13
2022-12-08T22:47:51.149Z,8.45
2022-12-08T22:50:18.493Z,9.77
2022-12-08T22:52:45.841Z,8.05
2022-12-08T22:55:13.351Z,9.98
2022-12-08T22:57:40.308Z,9.15
2022-12-08T23:00:08.365Z,7.60
2022-12-08T23:02:37.480Z,8.52
2022-12-08T23:05:05.822Z,8.73
2022-12-08T23:07:35.565Z,10.95
2022-12-08T23:10:03.000Z,8.38
2022-12-08T23:12:30.303Z,10.32
2022-12-08T23:14:58.976Z,11.15
2022-12-08T23:17:25.932Z,8.43
2022-12-08T23:19:53.188Z,8.27
2022-12-08T23:22:20.842Z,8.73
2022-12-08T23:24:48.594Z,9.88
2022-12-08T23:27:16.159Z,8.73
2022-12-08T23:29:43.989Z,10.35
2022-12-08T23:32:11.742Z,9.23
2022-12-08T23:34:38.841Z,8.95
2022-12-08T23:37:05.868Z,10.15
2022-12-08T23:39:33.036Z,9.65
2022-12-08T23:42:06.384Z,10.05
2022-12-08T23:44:33.925Z,7.75
2022-12-08T23:47:01.376Z,9.23
2022-12-08T23:51:55.911Z,6.05
2022-12-08T23:54:23.162Z,7.85
2022-12-08T23:56:50.271Z,8.75
2022-12-08T23:59:17.680Z,8.60
